sensor_id;sensor_type;location;lat;lon;timestamp;pressure;altitude;pressure_sealevel;temperature;humidity
49194;BME280;35029;50.804;12.866;2023-04-01T00:01:08;95968.53;;;7.97;100.00
49194;BME280;35029;50.804;12.866;2023-04-01T00:03:35;95971.09;;;8.03;100.00
49194;BME280;35029;50.804;12.866;2023-04-01T00:06:01;95972.25;;;8.07;100.00
49194;BME280;35029;50.804;12.866;2023-04-01T00:08:27;95947.03;;;7.93;100.00
49194;BME280;35029;50.804;12.866;2023-04-01T00:10:53;95960.88;;;8.07;100.00
49194;BME280;35029;50.804;12.866;2023-04-01T00:13:19;95971.56;;;8.12;100.00
49194;BME280;35029;50.804;12.866;2023-04-01T00:15:45;95952.00;;;8.01;100.00
49194;BME280;35029;50.804;12.866;2023-04-01T00:18:12;95967.81;;;8.20;100.00
49194;BME280;35029;50.804;12.866;2023-04-01T00:20:39;95970.53;;;8.13;100.00
49194;BME280;35029;50.804;12.866;2023-04-01T00:23:04;95949.84;;;7.98;100.00
49194;BME280;35029;50.804;12.866;2023-04-01T00:25:30;95943.53;;;7.99;100.00
49194;BME280;35029;50.804;12.866;2023-04-01T00:27:56;95965.13;;;8.08;100.00
49194;BME280;35029;50.804;12.866;2023-04-01T00:30:21;95958.47;;;8.05;100.00
49194;BME280;35029;50.804;12.866;2023-04-01T00:32:51;95945.22;;;7.93;100.00
49194;BME280;35029;50.804;12.866;2023-04-01T00:35:17;95964.56;;;8.06;100.00
49194;BME280;35029;50.804;12.866;2023-04-01T00:37:43;95958.81;;;8.09;100.00
49194;BME280;35029;50.804;12.866;2023-04-01T00:40:23;95968.38;;;8.10;100.00
49194;BME280;35029;50.804;12.866;2023-04-01T00:42:49;95962.84;;;8.11;100.00
49194;BME280;35029;50.804;12.866;2023-04-01T00:45:35;95972.97;;;8.15;100.00
49194;BME280;35029;50.804;12.866;2023-04-01T00:48:11;95963.41;;;8.13;100.00
49194;BME280;35029;50.804;12.866;2023-04-01T00:50:40;95970.47;;;8.20;100.00
49194;BME280;35029;50.804;12.866;2023-04-01T00:53:08;95977.00;;;8.17;100.00
49194;BME280;35029;50.804;12.866;2023-04-01T00:55:39;95974.91;;;8.19;100.00
49194;BME280;35029;50.804;12.866;2023-04-01T00:58:10;95956.19;;;8.09;100.00
49194;BME280;35029;50.804;12.866;2023-04-01T01:00:38;95970.81;;;8.23;100.00
49194;BME280;35029;50.804;12.866;2023-04-01T01:03:05;95944.03;;;7.89;100.00
49194;BME280;35029;50.804;12.866;2023-04-01T01:05:43;95970.09;;;8.16;100.00
49194;BME280;35029;50.804;12.866;2023-04-01T01:10:55;95951.69;;;7.98;100.00
49194;BME280;35029;50.804;12.866;2023-04-01T01:13:36;95969.94;;;8.11;100.00
49194;BME280;35029;50.804;12.866;2023-04-01T01:16:10;95966.22;;;8.00;100.00
49194;BME280;35029;50.804;12.866;2023-04-01T01:22:16;95961.47;;;8.09;100.00
49194;BME280;35029;50.804;12.866;2023-04-01T01:27:34;95962.72;;;8.06;100.00
49194;BME280;35029;50.804;12.866;2023-04-01T01:30:15;95960.06;;;8.06;100.00
49194;BME280;35029;50.804;12.866;2023-04-01T01:35:49;95960.56;;;8.15;100.00
49194;BME280;35029;50.804;12.866;2023-04-01T01:38:27;95963.19;;;8.15;100.00
49194;BME280;35029;50.804;12.866;2023-04-01T01:41:04;95961.59;;;8.14;100.00
49194;BME280;35029;50.804;12.866;2023-04-01T01:43:35;95961.69;;;8.07;100.00
49194;BME280;35029;50.804;12.866;2023-04-01T01:46:07;95943.38;;;7.94;100.00
49194;BME280;35029;50.804;12.866;2023-04-01T01:48:35;95965.13;;;8.08;100.00
49194;BME280;35029;50.804;12.866;2023-04-01T01:51:05;95958.81;;;8.09;100.00
49194;BME280;35029;50.804;12.866;2023-04-01T01:53:31;95937.16;;;7.88;100.00
49194;BME280;35029;50.804;12.866;2023-04-01T01:55:57;95949.84;;;7.98;100.00
49194;BME280;35029;50.804;12.866;2023-04-01T01:58:29;95963.03;;;7.98;100.00
49194;BME280;35029;50.804;12.866;2023-04-01T02:01:03;95946.69;;;7.89;100.00
49194;BME280;35029;50.804;12.866;2023-04-01T02:03:34;95949.22;;;7.96;100.00
49194;BME280;35029;50.804;12.866;2023-04-01T02:06:04;95957.97;;;7.97;100.00
49194;BME280;35029;50.804;12.866;2023-04-01T02:08:35;95956.59;;;7.94;100.00
49194;BME280;35029;50.804;12.866;2023-04-01T02:11:05;95962.66;;;7.94;100.00
49194;BME280;35029;50.804;12.866;2023-04-01T02:13:41;95946.47;;;7.91;100.00
49194;BME280;35029;50.804;12.866;2023-04-01T02:16:19;95953.34;;;7.92;100.00
49194;BME280;35029;50.804;12.866;2023-04-01T02:18:49;95944.19;;;7.94;100.00
49194;BME280;35029;50.804;12.866;2023-04-01T02:21:17;95929.34;;;7.82;100.00
49194;BME280;35029;50.804;12.866;2023-04-01T02:23:45;95949.53;;;7.88;100.00
49194;BME280;35029;50.804;12.866;2023-04-01T02:26:13;95948.16;;;7.85;100.00
49194;BME280;35029;50.804;12.866;2023-04-01T02:28:41;95951.53;;;7.92;100.00
49194;BME280;35029;50.804;12.866;2023-04-01T02:31:10;95934.63;;;7.82;100.00
49194;BME280;35029;50.804;12.866;2023-04-01T02:33:38;95956.81;;;7.92;100.00
49194;BME280;35029;50.804;12.866;2023-04-01T02:36:05;95949.13;;;7.91;100.00
49194;BME280;35029;50.804;12.866;2023-04-01T02:38:31;95951.44;;;7.99;100.00
49194;BME280;35029;50.804;12.866;2023-04-01T02:40:59;95949.84;;;7.98;100.00
49194;BME280;35029;50.804;12.866;2023-04-01T02:43:26;95954.09;;;7.99;100.00
49194;BME280;35029;50.804;12.866;2023-04-01T02:45:52;95934.53;;;7.88;100.00
49194;BME280;35029;50.804;12.866;2023-04-01T02:48:17;95955.09;;;7.98;100.00
49194;BME280;35029;50.804;12.866;2023-04-01T02:50:43;95950.63;;;7.99;100.00
49194;BME280;35029;50.804;12.866;2023-04-01T02:53:08;95930.72;;;7.84;100.00
49194;BME280;35029;50.804;12.866;2023-04-01T02:55:34;95966.97;;;8.07;100.00
49194;BME280;35029;50.804;12.866;2023-04-01T02:58:00;95949.16;;;8.03;100.00
49194;BME280;35029;50.804;12.866;2023-04-01T03:00:27;95953.63;;;8.02;100.00
49194;BME280;35029;50.804;12.866;2023-04-01T03:02:53;95966.75;;;8.09;100.00
49194;BME280;35029;50.804;12.866;2023-04-01T03:05:19;95955.69;;;8.00;100.00
49194;BME280;35029;50.804;12.866;2023-04-01T03:07:46;95968.44;;;8.03;100.00
49194;BME280;35029;50.804;12.866;2023-04-01T03:10:12;95973.50;;;8.05;100.00
49194;BME280;35029;50.804;12.866;2023-04-01T03:12:38;95968.47;;;8.15;100.00
49194;BME280;35029;50.804;12.866;2023-04-01T03:15:04;95976.19;;;8.17;100.00
49194;BME280;35029;50.804;12.866;2023-04-01T03:17:29;95974.81;;;8.14;100.00
49194;BME280;35029;50.804;12.866;2023-04-01T03:19:55;95972.16;;;8.14;100.00
49194;BME280;35029;50.804;12.866;2023-04-01T03:22:20;95976.75;;;8.19;100.00
49194;BME280;35029;50.804;12.866;2023-04-01T03:24:47;95982.84;;;8.19;100.00
49194;BME280;35029;50.804;12.866;2023-04-01T03:27:13;95958.19;;;7.95;100.00
49194;BME280;35029;50.804;12.866;2023-04-01T03:29:39;95985.31;;;8.02;100.00
49194;BME280;35029;50.804;12.866;2023-04-01T03:32:04;95964.97;;;8.03;100.00
49194;BME280;35029;50.804;12.866;2023-04-01T03:34:30;95976.13;;;8.05;100.00
49194;BME280;35029;50.804;12.866;2023-04-01T03:36:56;95964.34;;;7.89;100.00
49194;BME280;35029;50.804;12.866;2023-04-01T03:39:21;95980.19;;;7.89;100.00
49194;BME280;35029;50.804;12.866;2023-04-01T03:41:48;95982.75;;;7.95;100.00
49194;BME280;35029;50.804;12.866;2023-04-01T03:44:15;95985.81;;;7.92;100.00
49194;BME280;35029;50.804;12.866;2023-04-01T03:46:41;95983.97;;;7.93;100.00
49194;BME280;35029;50.804;12.866;2023-04-01T03:49:07;95984.22;;;7.91;100.00
49194;BME280;35029;50.804;12.866;2023-04-01T03:51:38;95970.38;;;7.77;100.00
49194;BME280;35029;50.804;12.866;2023-04-01T03:54:04;95981.50;;;7.79;100.00
49194;BME280;35029;50.804;12.866;2023-04-01T03:56:30;95991.19;;;7.86;100.00
49194;BME280;35029;50.804;12.866;2023-04-01T03:58:56;95931.19;;;7.44;100.00
49194;BME280;35029;50.804;12.866;2023-04-01T04:01:22;95984.44;;;7.71;100.00
49194;BME280;35029;50.804;12.866;2023-04-01T04:03:51;95984.66;;;7.70;100.00
49194;BME280;35029;50.804;12.866;2023-04-01T04:06:18;95979.09;;;7.59;100.00
49194;BME280;35029;50.804;12.866;2023-04-01T04:08:44;95993.41;;;7.70;100.00
49194;BME280;35029;50.804;12.866;2023-04-01T04:11:10;95981.63;;;7.66;100.00
49194;BME280;35029;50.804;12.866;2023-04-01T04:13:39;95954.69;;;7.45;100.00
49194;BME280;35029;50.804;12.866;2023-04-01T04:16:05;95993.00;;;7.67;100.00
49194;BME280;35029;50.804;12.866;2023-04-01T04:18:32;95996.44;;;7.67;100.00
49194;BME280;35029;50.804;12.866;2023-04-01T04:20:58;95997.13;;;7.63;100.00
49194;BME280;35029;50.804;12.866;2023-04-01T04:23:25;95998.66;;;7.70;100.00
49194;BME280;35029;50.804;12.866;2023-04-01T04:25:58;95986.41;;;7.57;100.00
49194;BME280;35029;50.804;12.866;2023-04-01T04:28:27;96007.22;;;7.66;100.00
49194;BME280;35029;50.804;12.866;2023-04-01T04:30:53;95996.59;;;7.54;100.00
49194;BME280;35029;50.804;12.866;2023-04-01T04:33:20;96003.34;;;7.68;100.00
49194;BME280;35029;50.804;12.866;2023-04-01T04:35:46;96008.84;;;7.67;100.00
49194;BME280;35029;50.804;12.866;2023-04-01T04:38:11;95999.59;;;7.57;100.00
49194;BME280;35029;50.804;12.866;2023-04-01T04:40:38;96014.69;;;7.69;100.00
49194;BME280;35029;50.804;12.866;2023-04-01T04:43:04;96009.63;;;7.67;100.00
49194;BME280;35029;50.804;12.866;2023-04-01T04:45:30;96006.84;;;7.62;100.00
49194;BME280;35029;50.804;12.866;2023-04-01T04:47:56;96006.59;;;7.70;100.00
49194;BME280;35029;50.804;12.866;2023-04-01T04:50:22;96006.44;;;7.65;100.00
49194;BME280;35029;50.804;12.866;2023-04-01T04:52:47;96016.31;;;7.70;100.00
49194;BME280;35029;50.804;12.866;2023-04-01T04:55:13;96005.19;;;7.68;100.00
49194;BME280;35029;50.804;12.866;2023-04-01T04:57:42;96010.47;;;7.68;100.00
49194;BME280;35029;50.804;12.866;2023-04-01T05:00:08;95994.47;;;7.63;100.00
49194;BME280;35029;50.804;12.866;2023-04-01T05:02:53;95999.16;;;7.60;100.00
49194;BME280;35029;50.804;12.866;2023-04-01T05:05:19;96023.69;;;7.79;100.00
49194;BME280;35029;50.804;12.866;2023-04-01T05:07:45;95992.28;;;7.59;100.00
49194;BME280;35029;50.804;12.866;2023-04-01T05:10:10;96008.78;;;7.73;100.00
49194;BME280;35029;50.804;12.866;2023-04-01T05:12:36;96011.25;;;7.68;100.00
49194;BME280;35029;50.804;12.866;2023-04-01T05:15:06;96019.47;;;7.78;100.00
49194;BME280;35029;50.804;12.866;2023-04-01T05:17:32;96021.72;;;7.75;100.00
49194;BME280;35029;50.804;12.866;2023-04-01T05:19:58;96022.97;;;7.72;100.00
49194;BME280;35029;50.804;12.866;2023-04-01T05:22:24;96017.84;;;7.77;100.00
49194;BME280;35029;50.804;12.866;2023-04-01T05:24:49;96022.13;;;7.78;100.00
49194;BME280;35029;50.804;12.866;2023-04-01T05:27:15;96003.72;;;7.72;100.00
49194;BME280;35029;50.804;12.866;2023-04-01T05:29:43;96012.50;;;7.66;100.00
49194;BME280;35029;50.804;12.866;2023-04-01T05:32:24;96028.97;;;7.79;100.00
49194;BME280;35029;50.804;12.866;2023-04-01T05:34:51;96031.63;;;7.79;100.00
49194;BME280;35029;50.804;12.866;2023-04-01T05:37:17;96032.78;;;7.84;100.00
49194;BME280;35029;50.804;12.866;2023-04-01T05:39:42;96026.94;;;7.82;100.00
49194;BME280;35029;50.804;12.866;2023-04-01T05:42:08;96018.50;;;7.73;100.00
49194;BME280;35029;50.804;12.866;2023-04-01T05:44:35;96036.25;;;7.84;100.00
49194;BME280;35029;50.804;12.866;2023-04-01T05:47:02;96034.94;;;7.93;100.00
49194;BME280;35029;50.804;12.866;2023-04-01T05:49:28;96035.50;;;7.95;100.00
49194;BME280;35029;50.804;12.866;2023-04-01T05:51:53;96038.94;;;7.96;100.00
49194;BME280;35029;50.804;12.866;2023-04-01T05:54:19;96036.69;;;8.00;100.00
49194;BME280;35029;50.804;12.866;2023-04-01T05:56:45;96038.06;;;8.02;100.00
49194;BME280;35029;50.804;12.866;2023-04-01T05:59:12;96032.00;;;8.02;100.00
49194;BME280;35029;50.804;12.866;2023-04-01T06:01:38;96039.81;;;8.08;100.00
49194;BME280;35029;50.804;12.866;2023-04-01T06:04:03;96042.09;;;8.05;100.00
49194;BME280;35029;50.804;12.866;2023-04-01T06:06:31;96038.56;;;8.11;100.00
49194;BME280;35029;50.804;12.866;2023-04-01T06:09:28;96048.47;;;8.16;100.00
49194;BME280;35029;50.804;12.866;2023-04-01T06:15:06;96038.06;;;8.21;100.00
49194;BME280;35029;50.804;12.866;2023-04-01T06:20:27;96048.19;;;8.24;100.00
49194;BME280;35029;50.804;12.866;2023-04-01T06:23:22;96046.25;;;8.31;100.00
49194;BME280;35029;50.804;12.866;2023-04-01T06:26:17;96041.66;;;8.26;100.00
49194;BME280;35029;50.804;12.866;2023-04-01T06:29:50;96057.19;;;8.35;100.00
49194;BME280;35029;50.804;12.866;2023-04-01T06:34:52;96073.75;;;8.42;100.00
49194;BME280;35029;50.804;12.866;2023-04-01T06:46:42;96064.38;;;8.46;100.00
49194;BME280;35029;50.804;12.866;2023-04-01T06:49:39;96073.91;;;8.47;100.00
49194;BME280;35029;50.804;12.866;2023-04-01T06:52:52;96052.03;;;8.40;100.00
49194;BME280;35029;50.804;12.866;2023-04-01T06:55:47;96079.91;;;8.54;100.00
49194;BME280;35029;50.804;12.866;2023-04-01T06:58:31;96078.88;;;8.55;100.00
49194;BME280;35029;50.804;12.866;2023-04-01T07:01:03;96078.88;;;8.55;100.00
49194;BME280;35029;50.804;12.866;2023-04-01T07:06:16;96080.84;;;8.60;100.00
49194;BME280;35029;50.804;12.866;2023-04-01T07:08:52;96084.09;;;8.62;100.00
49194;BME280;35029;50.804;12.866;2023-04-01T07:11:27;96069.56;;;8.53;100.00
49194;BME280;35029;50.804;12.866;2023-04-01T07:14:32;96091.56;;;8.65;100.00
49194;BME280;35029;50.804;12.866;2023-04-01T07:17:21;96087.88;;;8.66;100.00
49194;BME280;35029;50.804;12.866;2023-04-01T07:20:36;96084.41;;;8.66;100.00
49194;BME280;35029;50.804;12.866;2023-04-01T07:22:50;96080.81;;;8.78;100.00
49194;BME280;35029;50.804;12.866;2023-04-01T07:25:55;96074.13;;;8.76;100.00
49194;BME280;35029;50.804;12.866;2023-04-01T07:28:41;96086.88;;;8.79;100.00
49194;BME280;35029;50.804;12.866;2023-04-01T07:40:26;96091.94;;;9.11;100.00
49194;BME280;35029;50.804;12.866;2023-04-01T07:45:31;96076.47;;;9.38;100.00
49194;BME280;35029;50.804;12.866;2023-04-01T07:48:25;96090.25;;;9.28;100.00
49194;BME280;35029;50.804;12.866;2023-04-01T07:51:07;96096.56;;;9.27;100.00
49194;BME280;35029;50.804;12.866;2023-04-01T07:53:40;96087.00;;;9.14;100.00
49194;BME280;35029;50.804;12.866;2023-04-01T07:56:12;96089.09;;;9.24;100.00
49194;BME280;35029;50.804;12.866;2023-04-01T08:06:43;96085.66;;;9.36;100.00
49194;BME280;35029;50.804;12.866;2023-04-01T08:21:02;96111.66;;;9.51;99.82
49194;BME280;35029;50.804;12.866;2023-04-01T08:23:44;96100.16;;;9.69;99.40
49194;BME280;35029;50.804;12.866;2023-04-01T08:26:37;96116.38;;;9.84;99.15
49194;BME280;35029;50.804;12.866;2023-04-01T08:29:22;96101.09;;;9.86;100.00
49194;BME280;35029;50.804;12.866;2023-04-01T08:32:12;96106.50;;;9.68;100.00
49194;BME280;35029;50.804;12.866;2023-04-01T08:34:43;96109.00;;;9.62;100.00
49194;BME280;35029;50.804;12.866;2023-04-01T08:37:31;96108.22;;;9.62;99.85
49194;BME280;35029;50.804;12.866;2023-04-01T08:40:32;96108.81;;;9.64;99.18
49194;BME280;35029;50.804;12.866;2023-04-01T08:53:36;96111.19;;;9.77;93.18
49194;BME280;35029;50.804;12.866;2023-04-01T09:01:34;96111.44;;;9.76;92.56
49194;BME280;35029;50.804;12.866;2023-04-01T09:07:04;96116.03;;;9.69;89.63
49194;BME280;35029;50.804;12.866;2023-04-01T09:16:11;96118.59;;;9.87;91.56
49194;BME280;35029;50.804;12.866;2023-04-01T09:21:30;96104.09;;;9.90;89.42
49194;BME280;35029;50.804;12.866;2023-04-01T09:35:38;96129.28;;;10.16;87.65
49194;BME280;35029;50.804;12.866;2023-04-01T09:41:01;96122.91;;;10.41;87.29
49194;BME280;35029;50.804;12.866;2023-04-01T09:55:05;96135.31;;;10.64;87.08
49194;BME280;35029;50.804;12.866;2023-04-01T10:00:45;96130.91;;;10.70;89.47
49194;BME280;35029;50.804;12.866;2023-04-01T10:24:51;96160.78;;;10.53;85.29
49194;BME280;35029;50.804;12.866;2023-04-01T10:30:31;96134.69;;;10.74;85.90
49194;BME280;35029;50.804;12.866;2023-04-01T10:36:22;96139.19;;;10.73;84.14
49194;BME280;35029;50.804;12.866;2023-04-01T10:41:58;96145.00;;;10.58;85.07
49194;BME280;35029;50.804;12.866;2023-04-01T10:52:40;96137.88;;;10.88;81.86
49194;BME280;35029;50.804;12.866;2023-04-01T10:58:54;96133.63;;;10.87;82.39
49194;BME280;35029;50.804;12.866;2023-04-01T11:16:37;96134.41;;;10.58;85.57
49194;BME280;35029;50.804;12.866;2023-04-01T11:28:14;96144.78;;;10.48;83.29
49194;BME280;35029;50.804;12.866;2023-04-01T11:31:01;96143.28;;;10.52;83.84
49194;BME280;35029;50.804;12.866;2023-04-01T11:33:44;96151.59;;;10.44;84.44
49194;BME280;35029;50.804;12.866;2023-04-01T11:42:47;96150.69;;;10.38;92.35
49194;BME280;35029;50.804;12.866;2023-04-01T11:45:45;96159.28;;;10.45;92.26
49194;BME280;35029;50.804;12.866;2023-04-01T11:54:40;96153.31;;;10.38;90.17
49194;BME280;35029;50.804;12.866;2023-04-01T12:06:00;96152.06;;;10.17;91.22
49194;BME280;35029;50.804;12.866;2023-04-01T12:08:50;96156.66;;;10.22;92.82
49194;BME280;35029;50.804;12.866;2023-04-01T12:11:29;96158.41;;;10.16;93.22
49194;BME280;35029;50.804;12.866;2023-04-01T12:19:58;96162.50;;;10.24;95.24
49194;BME280;35029;50.804;12.866;2023-04-01T12:25:04;96165.75;;;10.14;94.92
49194;BME280;35029;50.804;12.866;2023-04-01T12:27:53;96157.81;;;10.14;96.12
49194;BME280;35029;50.804;12.866;2023-04-01T12:30:34;96138.72;;;10.00;99.59
49194;BME280;35029;50.804;12.866;2023-04-01T12:38:43;96154.47;;;9.95;97.87
49194;BME280;35029;50.804;12.866;2023-04-01T12:47:00;96185.19;;;9.84;100.00
49194;BME280;35029;50.804;12.866;2023-04-01T12:52:43;96156.06;;;9.60;100.00
49194;BME280;35029;50.804;12.866;2023-04-01T12:58:45;96172.06;;;9.66;100.00
49194;BME280;35029;50.804;12.866;2023-04-01T13:04:21;96174.03;;;9.70;100.00
49194;BME280;35029;50.804;12.866;2023-04-01T13:10:07;96172.69;;;9.91;100.00
49194;BME280;35029;50.804;12.866;2023-04-01T13:13:07;96177.72;;;10.28;100.00
49194;BME280;35029;50.804;12.866;2023-04-01T13:18:20;96179.06;;;10.78;100.00
49194;BME280;35029;50.804;12.866;2023-04-01T13:21:13;96174.53;;;10.91;100.00
49194;BME280;35029;50.804;12.866;2023-04-01T13:28:47;96192.47;;;10.48;100.00
49194;BME280;35029;50.804;12.866;2023-04-01T13:34:22;96197.19;;;10.10;100.00
49194;BME280;35029;50.804;12.866;2023-04-01T13:37:02;96187.03;;;10.07;100.00
49194;BME280;35029;50.804;12.866;2023-04-01T14:00:48;96203.66;;;10.14;100.00
49194;BME280;35029;50.804;12.866;2023-04-01T14:17:03;96206.41;;;10.08;100.00
49194;BME280;35029;50.804;12.866;2023-04-01T14:22:38;96210.06;;;10.07;100.00
49194;BME280;35029;50.804;12.866;2023-04-01T14:39:49;96208.47;;;10.29;100.00
49194;BME280;35029;50.804;12.866;2023-04-01T14:44:43;96184.75;;;9.87;100.00
49194;BME280;35029;50.804;12.866;2023-04-01T14:50:14;96218.22;;;9.93;100.00
49194;BME280;35029;50.804;12.866;2023-04-01T14:52:47;96217.75;;;9.96;100.00
49194;BME280;35029;50.804;12.866;2023-04-01T14:58:12;96220.53;;;10.02;100.00
49194;BME280;35029;50.804;12.866;2023-04-01T15:00:47;96217.91;;;10.13;100.00
49194;BME280;35029;50.804;12.866;2023-04-01T15:08:52;96206.84;;;10.28;100.00
49194;BME280;35029;50.804;12.866;2023-04-01T15:24:40;96227.94;;;10.59;100.00
49194;BME280;35029;50.804;12.866;2023-04-01T15:27:32;96220.94;;;10.53;100.00
49194;BME280;35029;50.804;12.866;2023-04-01T15:33:03;96225.28;;;10.71;100.00
49194;BME280;35029;50.804;12.866;2023-04-01T16:05:03;96239.22;;;10.19;100.00
49194;BME280;35029;50.804;12.866;2023-04-01T16:10:54;96248.88;;;10.25;99.65
49194;BME280;35029;50.804;12.866;2023-04-01T16:16:47;96254.28;;;10.30;100.00
49194;BME280;35029;50.804;12.866;2023-04-01T16:22:02;96263.03;;;10.30;98.57
49194;BME280;35029;50.804;12.866;2023-04-01T16:24:45;96263.97;;;10.24;97.87
49194;BME280;35029;50.804;12.866;2023-04-01T16:27:29;96258.69;;;10.24;97.66
49194;BME280;35029;50.804;12.866;2023-04-01T16:32:54;96269.25;;;10.24;96.90
49194;BME280;35029;50.804;12.866;2023-04-01T16:40:43;96270.41;;;10.28;97.68
49194;BME280;35029;50.804;12.866;2023-04-01T17:00:39;96305.94;;;9.97;99.69
49194;BME280;35029;50.804;12.866;2023-04-01T17:10:53;96312.31;;;9.77;100.00
49194;BME280;35029;50.804;12.866;2023-04-01T17:13:34;96323.59;;;9.73;100.00
49194;BME280;35029;50.804;12.866;2023-04-01T17:16:14;96324.28;;;9.68;100.00
49194;BME280;35029;50.804;12.866;2023-04-01T17:24:03;96325.75;;;9.64;100.00
49194;BME280;35029;50.804;12.866;2023-04-01T17:26:37;96333.69;;;9.64;100.00
49194;BME280;35029;50.804;12.866;2023-04-01T17:34:52;96333.41;;;9.54;100.00
49194;BME280;35029;50.804;12.866;2023-04-01T17:37:56;96338.13;;;9.52;100.00
49194;BME280;35029;50.804;12.866;2023-04-01T17:43:08;96348.56;;;9.46;100.00
49194;BME280;35029;50.804;12.866;2023-04-01T17:45:48;96337.59;;;9.43;100.00
49194;BME280;35029;50.804;12.866;2023-04-01T17:48:41;96336.28;;;9.34;100.00
49194;BME280;35029;50.804;12.866;2023-04-01T17:51:31;96350.34;;;9.34;100.00
49194;BME280;35029;50.804;12.866;2023-04-01T17:54:29;96357.44;;;9.34;100.00
49194;BME280;35029;50.804;12.866;2023-04-01T18:05:39;96370.00;;;9.20;100.00
49194;BME280;35029;50.804;12.866;2023-04-01T18:14:04;96375.81;;;9.10;100.00
49194;BME280;35029;50.804;12.866;2023-04-01T18:21:53;96386.66;;;9.02;100.00
49194;BME280;35029;50.804;12.866;2023-04-01T18:24:33;96378.13;;;9.00;100.00
49194;BME280;35029;50.804;12.866;2023-04-01T18:29:34;96386.50;;;8.96;100.00
49194;BME280;35029;50.804;12.866;2023-04-01T18:32:35;96396.50;;;8.94;100.00
49194;BME280;35029;50.804;12.866;2023-04-01T18:40:30;96412.78;;;8.91;100.00
49194;BME280;35029;50.804;12.866;2023-04-01T18:45:57;96421.16;;;8.88;100.00
49194;BME280;35029;50.804;12.866;2023-04-01T18:48:52;96423.00;;;8.88;100.00
49194;BME280;35029;50.804;12.866;2023-04-01T18:54:00;96419.78;;;8.79;100.00
49194;BME280;35029;50.804;12.866;2023-04-01T18:56:48;96430.31;;;8.86;100.00
49194;BME280;35029;50.804;12.866;2023-04-01T18:59:21;96435.81;;;8.84;100.00
49194;BME280;35029;50.804;12.866;2023-04-01T19:04:47;96416.19;;;8.73;100.00
49194;BME280;35029;50.804;12.866;2023-04-01T19:07:48;96434.41;;;8.82;100.00
49194;BME280;35029;50.804;12.866;2023-04-01T19:13:10;96448.44;;;8.82;100.00
49194;BME280;35029;50.804;12.866;2023-04-01T19:15:49;96441.75;;;8.79;100.00
49194;BME280;35029;50.804;12.866;2023-04-01T19:18:34;96454.75;;;8.81;100.00
49194;BME280;35029;50.804;12.866;2023-04-01T19:21:21;96436.59;;;8.66;100.00
49194;BME280;35029;50.804;12.866;2023-04-01T19:26:27;96447.09;;;8.73;100.00
49194;BME280;35029;50.804;12.866;2023-04-01T19:29:48;96459.13;;;8.69;100.00
49194;BME280;35029;50.804;12.866;2023-04-01T19:32:08;96460.34;;;8.66;100.00
49194;BME280;35029;50.804;12.866;2023-04-01T19:37:31;96460.63;;;8.58;100.00
49194;BME280;35029;50.804;12.866;2023-04-01T19:40:08;96481.97;;;8.56;100.00
49194;BME280;35029;50.804;12.866;2023-04-01T19:53:38;96479.97;;;8.45;100.00
49194;BME280;35029;50.804;12.866;2023-04-01T20:00:59;96497.25;;;8.41;100.00
49194;BME280;35029;50.804;12.866;2023-04-01T20:03:42;96502.72;;;8.46;100.00
49194;BME280;35029;50.804;12.866;2023-04-01T20:06:20;96508.19;;;8.44;100.00
49194;BME280;35029;50.804;12.866;2023-04-01T20:19:41;96512.50;;;8.45;100.00
49194;BME280;35029;50.804;12.866;2023-04-01T20:22:34;96521.41;;;8.44;100.00
49194;BME280;35029;50.804;12.866;2023-04-01T20:25:51;96524.25;;;8.43;100.00
49194;BME280;35029;50.804;12.866;2023-04-01T20:36:58;96534.63;;;8.44;100.00
49194;BME280;35029;50.804;12.866;2023-04-01T20:42:16;96541.63;;;8.64;100.00
49194;BME280;35029;50.804;12.866;2023-04-01T20:53:42;96553.53;;;8.48;100.00
49194;BME280;35029;50.804;12.866;2023-04-01T21:06:59;96557.56;;;8.51;100.00
49194;BME280;35029;50.804;12.866;2023-04-01T21:08:59;96562.66;;;8.52;100.00
49194;BME280;35029;50.804;12.866;2023-04-01T21:14:49;96566.53;;;8.50;100.00
49194;BME280;35029;50.804;12.866;2023-04-01T21:17:38;96576.88;;;8.51;100.00
49194;BME280;35029;50.804;12.866;2023-04-01T21:26:04;96575.25;;;8.50;100.00
49194;BME280;35029;50.804;12.866;2023-04-01T21:28:45;96568.75;;;8.39;100.00
49194;BME280;35029;50.804;12.866;2023-04-01T21:34:26;96591.09;;;8.50;100.00
49194;BME280;35029;50.804;12.866;2023-04-01T21:52:08;96610.81;;;8.48;100.00
49194;BME280;35029;50.804;12.866;2023-04-01T22:00:19;96615.69;;;8.44;100.00
49194;BME280;35029;50.804;12.866;2023-04-01T22:14:03;96619.75;;;8.46;100.00
49194;BME280;35029;50.804;12.866;2023-04-01T22:16:53;96626.06;;;8.45;100.00
49194;BME280;35029;50.804;12.866;2023-04-01T22:19:20;96631.91;;;8.41;100.00
49194;BME280;35029;50.804;12.866;2023-04-01T22:22:13;96631.91;;;8.41;100.00
49194;BME280;35029;50.804;12.866;2023-04-01T22:25:12;96626.25;;;8.37;100.00
49194;BME280;35029;50.804;12.866;2023-04-01T22:27:45;96632.97;;;8.40;100.00
49194;BME280;35029;50.804;12.866;2023-04-01T22:30:36;96636.41;;;8.40;100.00
49194;BME280;35029;50.804;12.866;2023-04-01T22:33:12;96633.75;;;8.40;100.00
49194;BME280;35029;50.804;12.866;2023-04-01T22:43:58;96649.00;;;8.32;100.00
49194;BME280;35029;50.804;12.866;2023-04-01T22:46:53;96655.13;;;8.32;100.00
49194;BME280;35029;50.804;12.866;2023-04-01T22:52:09;96640.72;;;8.21;100.00
49194;BME280;35029;50.804;12.866;2023-04-01T22:54:42;96657.13;;;8.30;100.00
49194;BME280;35029;50.804;12.866;2023-04-01T22:58:11;96656.94;;;8.32;100.00
49194;BME280;35029;50.804;12.866;2023-04-01T23:00:32;96667.50;;;8.32;100.00
49194;BME280;35029;50.804;12.866;2023-04-01T23:03:17;96666.09;;;8.29;100.00
49194;BME280;35029;50.804;12.866;2023-04-01T23:05:51;96667.91;;;8.28;100.00